createdAt,value
2018-09-09T00:02:29.908Z,23.30
2018-09-09T00:05:04.573Z,23.20
2018-09-09T00:07:37.877Z,23.10
2018-09-09T00:10:11.749Z,23.20
2018-09-09T00:12:45.029Z,23.20
2018-09-09T00:15:18.317Z,23.20
2018-09-09T00:17:51.430Z,23.30
2018-09-09T00:20:25.632Z,23.20
2018-09-09T00:22:58.522Z,23.20
2018-09-09T00:25:31.515Z,23.20
2018-09-09T00:28:06.367Z,23.20
2018-09-09T00:30:40.464Z,23.20
2018-09-09T00:33:16.352Z,23.20
2018-09-09T00:35:51.122Z,23.20
2018-09-09T00:38:33.693Z,23.10
2018-09-09T00:44:03.555Z,23.10
2018-09-09T00:46:45.372Z,23.10
2018-09-09T00:49:28.402Z,23.10
2018-09-09T00:53:18.046Z,23.10
2018-09-09T00:56:01.439Z,23.00
2018-09-09T00:58:34.495Z,22.90
2018-09-09T01:01:14.790Z,22.90
2018-09-09T01:03:50.196Z,22.90
2018-09-09T01:06:24.920Z,22.90
2018-09-09T01:08:59.939Z,22.80
2018-09-09T01:11:33.528Z,22.70
2018-09-09T01:14:08.779Z,22.70
2018-09-09T01:16:43.422Z,22.60
2018-09-09T01:19:17.434Z,22.60
2018-09-09T01:21:50.578Z,22.60
2018-09-09T01:24:25.370Z,22.60
2018-09-09T01:26:58.636Z,22.60
2018-09-09T01:29:31.550Z,22.60
2018-09-09T01:32:04.574Z,22.60
2018-09-09T01:34:37.424Z,22.60
2018-09-09T01:37:10.549Z,22.50
2018-09-09T01:39:43.482Z,22.40
2018-09-09T01:42:16.626Z,22.40
2018-09-09T01:44:49.410Z,22.30
2018-09-09T01:47:22.371Z,22.30
2018-09-09T01:49:55.482Z,22.20
2018-09-09T01:52:28.529Z,22.10
2018-09-09T01:55:01.422Z,22.00
2018-09-09T01:57:36.871Z,21.90
2018-09-09T02:00:16.964Z,21.80
2018-09-09T02:02:54.847Z,21.70
2018-09-09T02:05:32.491Z,21.70
2018-09-09T02:08:11.924Z,21.70
2018-09-09T02:10:56.684Z,21.70
2018-09-09T02:13:38.305Z,21.60
2018-09-09T02:16:18.476Z,21.40
2018-09-09T02:18:56.487Z,21.30
2018-09-09T02:21:31.621Z,21.30
2018-09-09T02:24:08.536Z,21.20
2018-09-09T02:26:46.117Z,21.10
2018-09-09T02:29:24.226Z,21.00
2018-09-09T02:32:06.760Z,20.90
2018-09-09T02:34:49.581Z,20.80
2018-09-09T02:37:30.679Z,20.80
2018-09-09T02:40:15.859Z,20.80
2018-09-09T02:42:55.533Z,20.80
2018-09-09T02:45:39.961Z,20.70
2018-09-09T02:48:20.616Z,20.70
2018-09-09T02:51:00.514Z,20.70
2018-09-09T02:53:41.020Z,20.80
2018-09-09T02:56:16.819Z,20.80
2018-09-09T02:58:53.433Z,20.80
2018-09-09T03:01:29.353Z,20.80
2018-09-09T03:04:12.753Z,20.90
2018-09-09T03:06:58.708Z,21.00
2018-09-09T03:09:45.948Z,21.00
2018-09-09T03:12:30.398Z,21.00
2018-09-09T03:15:12.691Z,21.10
2018-09-09T03:17:57.522Z,21.10
2018-09-09T03:20:39.142Z,21.00
2018-09-09T03:23:20.665Z,21.10
2018-09-09T03:26:05.285Z,21.10
2018-09-09T03:28:42.953Z,21.00
2018-09-09T03:31:28.125Z,21.00
2018-09-09T03:34:14.609Z,20.90
2018-09-09T03:37:01.271Z,20.80
2018-09-09T03:39:47.045Z,20.70
2018-09-09T03:42:28.696Z,20.80
2018-09-09T03:45:06.977Z,20.70
2018-09-09T03:47:48.174Z,20.70
2018-09-09T03:50:21.353Z,20.70
2018-09-09T03:52:59.036Z,20.70
2018-09-09T03:55:40.275Z,20.60
2018-09-09T03:58:15.293Z,20.60
2018-09-09T04:00:52.393Z,20.60
2018-09-09T04:03:25.576Z,20.60
2018-09-09T04:05:58.716Z,20.70
2018-09-09T04:08:31.941Z,20.70
2018-09-09T04:11:11.223Z,20.70
2018-09-09T04:13:44.971Z,20.60
2018-09-09T04:16:17.979Z,20.50
2018-09-09T04:18:51.330Z,20.50
2018-09-09T04:21:24.404Z,20.60
2018-09-09T04:23:58.033Z,20.50
2018-09-09T04:26:31.358Z,20.50
2018-09-09T04:29:06.794Z,20.50
2018-09-09T04:31:40.006Z,20.60
2018-09-09T04:34:13.126Z,20.50
2018-09-09T04:36:46.558Z,20.50
2018-09-09T04:39:19.643Z,20.50
2018-09-09T04:41:52.867Z,20.50
2018-09-09T04:44:25.954Z,20.40
2018-09-09T04:46:58.791Z,20.40
2018-09-09T04:49:32.342Z,20.40
2018-09-09T04:52:05.531Z,20.40
2018-09-09T04:54:38.342Z,20.30
2018-09-09T04:57:11.485Z,20.30
2018-09-09T04:59:45.168Z,20.20
2018-09-09T05:02:18.262Z,20.30
2018-09-09T05:04:51.806Z,20.30
2018-09-09T05:07:24.913Z,20.20
2018-09-09T05:09:58.074Z,20.20
2018-09-09T05:12:31.246Z,20.10
2018-09-09T05:15:04.510Z,20.10
2018-09-09T05:17:38.094Z,20.10
2018-09-09T05:20:11.371Z,20.00
2018-09-09T05:22:44.871Z,20.00
2018-09-09T05:25:17.954Z,20.00
2018-09-09T05:27:51.625Z,19.90
2018-09-09T05:30:25.305Z,20.00
2018-09-09T05:32:59.646Z,20.00
2018-09-09T05:35:33.127Z,20.00
2018-09-09T05:38:06.844Z,20.10
2018-09-09T05:40:40.289Z,20.10
2018-09-09T05:43:14.074Z,20.10
2018-09-09T05:45:47.237Z,20.20
2018-09-09T05:48:20.616Z,20.10
2018-09-09T05:50:54.567Z,20.10
2018-09-09T05:53:27.732Z,20.10
2018-09-09T05:56:02.274Z,20.00
2018-09-09T05:58:35.431Z,19.90
2018-09-09T06:01:08.578Z,19.90
2018-09-09T06:03:41.929Z,19.80
2018-09-09T06:06:16.131Z,19.90
2018-09-09T06:08:51.071Z,19.90
2018-09-09T06:11:24.960Z,19.80
2018-09-09T06:13:59.408Z,19.90
2018-09-09T06:16:35.240Z,19.90
2018-09-09T06:19:08.336Z,20.00
2018-09-09T06:21:41.477Z,19.90
2018-09-09T06:24:14.469Z,19.80
2018-09-09T06:26:47.526Z,19.80
2018-09-09T06:29:20.548Z,19.80
2018-09-09T06:31:53.927Z,19.90
2018-09-09T06:34:27.034Z,19.90
2018-09-09T06:37:00.000Z,19.80
2018-09-09T06:46:23.666Z,19.80
2018-09-09T06:48:56.873Z,19.80
2018-09-09T06:51:29.799Z,19.80
2018-09-09T06:54:02.947Z,19.80
2018-09-09T06:56:36.170Z,19.80
2018-09-09T06:59:09.359Z,19.80
2018-09-09T07:01:42.517Z,19.80
2018-09-09T07:04:15.614Z,19.70
2018-09-09T07:06:48.653Z,19.70
2018-09-09T07:09:21.834Z,19.70
2018-09-09T07:11:54.900Z,19.70
2018-09-09T07:14:27.938Z,19.60
2018-09-09T07:17:00.792Z,19.60
2018-09-09T07:19:33.829Z,19.60
2018-09-09T07:22:06.812Z,19.60
2018-09-09T07:24:39.805Z,19.70
2018-09-09T07:27:13.095Z,19.70
2018-09-09T07:29:46.186Z,19.70
2018-09-09T07:32:19.333Z,19.70
2018-09-09T07:34:52.586Z,19.60
2018-09-09T07:37:25.666Z,19.60
2018-09-09T07:39:58.994Z,19.50
2018-09-09T07:42:32.834Z,19.50
2018-09-09T07:45:06.079Z,19.60
2018-09-09T07:47:39.386Z,19.60
2018-09-09T07:50:12.442Z,19.60
2018-09-09T07:52:45.650Z,19.60
2018-09-09T07:55:18.909Z,19.60
2018-09-09T07:57:51.900Z,19.60
2018-09-09T08:00:25.144Z,19.60
2018-09-09T08:02:58.658Z,19.60
2018-09-09T08:05:33.328Z,19.50
2018-09-09T08:08:06.597Z,19.50
2018-09-09T08:10:39.951Z,19.50
2018-09-09T08:13:13.199Z,19.50
2018-09-09T08:15:46.208Z,19.50
2018-09-09T08:18:19.602Z,19.50
2018-09-09T08:20:52.926Z,19.60
2018-09-09T08:23:26.037Z,19.60
2018-09-09T08:25:59.990Z,19.60
2018-09-09T08:28:33.117Z,19.60
2018-09-09T08:31:06.230Z,19.60
2018-09-09T08:33:39.842Z,19.60
2018-09-09T08:36:12.901Z,19.60
2018-09-09T08:38:46.312Z,19.70
2018-09-09T08:41:27.766Z,19.70
2018-09-09T08:44:15.446Z,19.70
2018-09-09T08:47:00.917Z,19.70
2018-09-09T08:49:47.841Z,19.80
2018-09-09T08:52:23.730Z,19.70
2018-09-09T08:55:08.430Z,19.70
2018-09-09T08:57:41.609Z,19.70
2018-09-09T09:00:14.809Z,19.60
2018-09-09T09:02:47.974Z,19.60
2018-09-09T09:05:21.047Z,19.60
2018-09-09T09:07:54.079Z,19.60
2018-09-09T09:10:27.323Z,19.60
2018-09-09T09:13:00.354Z,19.50
2018-09-09T09:15:33.698Z,19.50
2018-09-09T09:18:07.074Z,19.50
2018-09-09T09:20:40.272Z,19.40
2018-09-09T09:23:13.393Z,19.40
2018-09-09T09:25:50.551Z,19.40
2018-09-09T09:28:24.993Z,19.40
2018-09-09T09:30:58.273Z,19.50
2018-09-09T09:33:31.266Z,19.40
2018-09-09T09:36:04.378Z,19.40
2018-09-09T09:38:38.386Z,19.40
2018-09-09T09:41:11.815Z,19.30
2018-09-09T09:43:45.518Z,19.30
2018-09-09T09:46:18.677Z,19.20
2018-09-09T09:48:52.428Z,19.20
2018-09-09T09:51:25.453Z,19.20
2018-09-09T09:53:59.217Z,19.20
2018-09-09T09:56:32.746Z,19.10
2018-09-09T09:59:05.928Z,19.10
2018-09-09T10:01:39.179Z,19.20
2018-09-09T10:04:12.464Z,19.20
2018-09-09T10:06:45.973Z,19.10
2018-09-09T10:09:19.512Z,19.10
2018-09-09T10:11:52.915Z,19.10
2018-09-09T10:14:26.095Z,19.10
2018-09-09T10:18:28.350Z,19.10
2018-09-09T10:21:01.891Z,19.10
2018-09-09T10:23:35.575Z,19.10
2018-09-09T10:27:37.777Z,19.10
2018-09-09T10:30:12.468Z,19.10
2018-09-09T10:32:46.107Z,19.30
2018-09-09T10:35:19.147Z,19.30
2018-09-09T10:37:52.349Z,19.30
2018-09-09T10:40:25.245Z,19.30
2018-09-09T10:42:58.366Z,19.30
2018-09-09T10:45:31.266Z,19.30
2018-09-09T10:48:04.413Z,19.40
2018-09-09T10:50:37.822Z,19.40
2018-09-09T10:53:10.924Z,19.30
2018-09-09T10:55:44.321Z,19.30
2018-09-09T10:58:17.688Z,19.30
2018-09-09T11:00:50.986Z,19.30
2018-09-09T11:03:25.427Z,19.40
2018-09-09T11:05:58.974Z,19.50
2018-09-09T11:08:33.743Z,19.50
2018-09-09T11:11:07.173Z,19.50
2018-09-09T11:13:42.241Z,19.50
2018-09-09T11:16:16.647Z,19.50
2018-09-09T11:18:49.788Z,19.60
2018-09-09T11:21:23.209Z,19.70
2018-09-09T11:23:57.800Z,19.70
2018-09-09T11:26:31.303Z,19.70
2018-09-09T11:29:04.898Z,19.70
2018-09-09T11:31:39.488Z,19.70
2018-09-09T11:34:15.094Z,19.80
2018-09-09T11:36:48.563Z,19.90
2018-09-09T11:39:21.833Z,19.90
2018-09-09T11:41:54.918Z,19.80
2018-09-09T11:44:28.033Z,19.80
2018-09-09T11:47:01.216Z,19.70
2018-09-09T11:49:34.230Z,19.70
2018-09-09T11:52:07.380Z,19.70
2018-09-09T11:54:40.357Z,19.70
2018-09-09T11:57:13.572Z,19.60
2018-09-09T11:59:46.743Z,19.50
2018-09-09T12:02:19.691Z,19.50
2018-09-09T12:04:52.812Z,19.50
2018-09-09T12:07:25.690Z,19.50
2018-09-09T12:09:58.813Z,19.50
2018-09-09T12:12:32.007Z,19.50
2018-09-09T12:15:04.937Z,19.60
2018-09-09T12:17:38.184Z,19.70
2018-09-09T12:20:11.043Z,19.80
2018-09-09T12:22:44.639Z,19.80
2018-09-09T12:25:24.417Z,19.80
2018-09-09T12:28:03.594Z,19.80
2018-09-09T12:30:47.258Z,19.90
2018-09-09T12:33:25.745Z,19.90
2018-09-09T12:36:07.552Z,19.90
2018-09-09T12:41:34.233Z,20.00
2018-09-09T12:44:16.551Z,20.00
2018-09-09T12:46:58.349Z,20.00
2018-09-09T12:49:34.939Z,20.00
2018-09-09T12:52:16.027Z,20.10
2018-09-09T12:54:49.181Z,20.10
2018-09-09T12:57:22.123Z,20.30
2018-09-09T12:59:55.625Z,20.30
2018-09-09T13:02:28.521Z,20.30
2018-09-09T13:07:51.317Z,20.40
2018-09-09T13:10:30.410Z,20.40
2018-09-09T13:13:14.020Z,20.40
2018-09-09T13:15:50.787Z,20.50
2018-09-09T13:18:24.109Z,20.50
2018-09-09T13:21:04.035Z,20.60
2018-09-09T13:23:43.509Z,20.70
2018-09-09T13:26:17.013Z,20.70
2018-09-09T13:28:57.461Z,20.90
2018-09-09T13:31:31.016Z,21.00
2018-09-09T13:34:08.568Z,21.00
2018-09-09T13:36:41.660Z,21.10
2018-09-09T13:39:15.521Z,21.10
2018-09-09T13:41:49.189Z,21.10
2018-09-09T13:44:23.318Z,21.20
2018-09-09T13:46:57.693Z,21.30
2018-09-09T13:49:31.936Z,21.30
2018-09-09T13:52:05.093Z,21.30
2018-09-09T13:54:38.243Z,21.30
2018-09-09T13:57:11.409Z,21.40
2018-09-09T13:59:44.601Z,21.50
2018-09-09T14:02:17.712Z,21.60
2018-09-09T14:04:50.878Z,21.60
2018-09-09T14:07:24.685Z,21.70
2018-09-09T14:11:26.994Z,21.80
2018-09-09T14:14:00.377Z,21.80
2018-09-09T14:16:40.042Z,21.80
2018-09-09T14:19:20.797Z,21.90
2018-09-09T14:21:56.408Z,21.90
2018-09-09T14:24:30.792Z,22.00
2018-09-09T14:27:04.084Z,22.20
2018-09-09T14:29:37.221Z,22.20
2018-09-09T14:32:10.094Z,22.20
2018-09-09T14:34:43.359Z,22.20
2018-09-09T14:37:17.117Z,22.20
2018-09-09T14:39:50.380Z,22.20
2018-09-09T14:42:24.075Z,22.30
2018-09-09T14:44:57.107Z,22.30
2018-09-09T14:47:30.190Z,22.40
2018-09-09T14:50:03.282Z,22.40
2018-09-09T14:52:36.602Z,22.60
2018-09-09T14:55:09.604Z,22.60
2018-09-09T14:57:44.084Z,22.60
2018-09-09T15:00:17.435Z,22.70
2018-09-09T15:02:50.732Z,22.80
2018-09-09T15:05:23.592Z,22.80
2018-09-09T15:07:56.949Z,23.00
2018-09-09T15:10:30.097Z,23.00
2018-09-09T15:13:03.662Z,23.00
2018-09-09T15:15:37.154Z,23.10
2018-09-09T15:18:10.507Z,23.20
2018-09-09T15:20:44.505Z,23.20
2018-09-09T15:23:18.146Z,23.50
2018-09-09T15:25:51.517Z,23.60
2018-09-09T15:28:25.177Z,23.70
2018-09-09T15:30:58.777Z,23.70
2018-09-09T15:33:33.589Z,23.90
2018-09-09T15:36:06.889Z,24.00
2018-09-09T15:38:40.279Z,24.10
2018-09-09T15:41:13.742Z,24.20
2018-09-09T15:43:47.664Z,24.20
2018-09-09T15:46:22.008Z,24.30
2018-09-09T15:48:55.277Z,24.30
2018-09-09T15:51:28.561Z,24.20
2018-09-09T15:54:05.848Z,24.20
2018-09-09T15:56:40.416Z,24.20
2018-09-09T15:59:13.705Z,24.40
2018-09-09T16:01:46.970Z,24.50
2018-09-09T16:04:20.048Z,24.60
2018-09-09T16:06:53.417Z,24.70
2018-09-09T16:09:30.001Z,24.80
2018-09-09T16:12:03.156Z,24.90
2018-09-09T16:14:38.341Z,25.00
2018-09-09T16:17:15.128Z,25.00
2018-09-09T16:19:49.720Z,25.30
2018-09-09T16:22:22.969Z,25.30
2018-09-09T16:24:56.804Z,25.30
2018-09-09T16:27:29.745Z,25.40
2018-09-09T16:30:02.848Z,25.30
2018-09-09T16:32:36.219Z,25.50
2018-09-09T16:35:09.476Z,25.60
2018-09-09T16:37:42.579Z,25.70
2018-09-09T16:40:16.033Z,25.80
2018-09-09T16:42:49.165Z,25.80
2018-09-09T16:45:22.321Z,25.90
2018-09-09T16:47:55.060Z,26.00
2018-09-09T16:50:29.393Z,26.10
2018-09-09T16:53:02.364Z,26.20
2018-09-09T16:55:35.469Z,26.20
2018-09-09T16:58:08.340Z,26.30
2018-09-09T17:00:53.541Z,26.20
2018-09-09T17:08:26.595Z,26.10
2018-09-09T17:10:59.808Z,26.00
2018-09-09T17:13:33.344Z,26.00
2018-09-09T17:16:06.763Z,26.10
2018-09-09T17:18:40.117Z,26.10
2018-09-09T17:21:13.815Z,26.10
2018-09-09T17:23:47.301Z,26.20
2018-09-09T17:26:20.949Z,26.20
2018-09-09T17:28:54.753Z,26.20
2018-09-09T17:31:28.016Z,26.20
2018-09-09T17:34:01.183Z,25.90
2018-09-09T17:36:34.413Z,25.90
2018-09-09T17:39:09.787Z,25.80
2018-09-09T17:41:43.400Z,25.70
2018-09-09T17:44:16.523Z,25.60
2018-09-09T17:46:49.470Z,25.50
2018-09-09T17:49:22.427Z,25.40
2018-09-09T17:51:55.658Z,25.40
2018-09-09T17:54:28.629Z,25.30
2018-09-09T17:57:01.425Z,25.30
2018-09-09T17:59:34.282Z,25.30
2018-09-09T18:02:07.155Z,25.20
2018-09-09T18:04:40.522Z,25.10
2018-09-09T18:07:13.932Z,25.20
2018-09-09T18:09:47.373Z,25.20
2018-09-09T18:12:20.514Z,25.10
2018-09-09T18:14:53.777Z,25.10
2018-09-09T18:17:27.041Z,25.10
2018-09-09T18:20:00.293Z,25.10
2018-09-09T18:22:34.379Z,25.10
2018-09-09T18:25:07.614Z,25.00
2018-09-09T18:27:42.212Z,25.10
2018-09-09T18:30:16.695Z,25.00
2018-09-09T18:32:50.167Z,24.80
2018-09-09T18:35:23.315Z,24.50
2018-09-09T18:37:56.671Z,24.20
2018-09-09T18:40:30.378Z,23.80
2018-09-09T18:43:03.564Z,23.60
2018-09-09T18:45:36.827Z,23.40
2018-09-09T18:48:10.150Z,23.20
2018-09-09T18:50:43.403Z,22.90
2018-09-09T18:53:17.702Z,22.80
2018-09-09T18:55:51.130Z,22.70
2018-09-09T18:58:24.906Z,22.70
2018-09-09T19:00:58.129Z,22.60
2018-09-09T19:03:31.208Z,22.60
2018-09-09T19:06:05.700Z,22.60
2018-09-09T19:08:38.783Z,22.60
2018-09-09T19:11:12.025Z,22.70
2018-09-09T19:13:45.551Z,22.80
2018-09-09T19:16:18.749Z,22.90
2018-09-09T19:18:54.198Z,23.00
2018-09-09T19:21:31.815Z,23.20
2018-09-09T19:24:07.290Z,23.20
2018-09-09T19:26:40.570Z,23.40
2018-09-09T19:29:15.335Z,23.40
2018-09-09T19:31:48.226Z,23.40
2018-09-09T19:34:21.355Z,23.50
2018-09-09T19:36:54.203Z,23.50
2018-09-09T19:39:27.350Z,23.50
2018-09-09T19:42:00.536Z,23.60
2018-09-09T19:44:33.840Z,23.70
2018-09-09T19:47:07.161Z,23.80
2018-09-09T19:49:40.186Z,23.80
2018-09-09T19:52:13.494Z,23.80
2018-09-09T19:54:46.781Z,24.00
2018-09-09T19:57:19.984Z,24.10
2018-09-09T19:59:53.358Z,24.30
2018-09-09T20:02:26.576Z,24.60
2018-09-09T20:05:00.123Z,25.00
2018-09-09T20:07:33.559Z,25.40
2018-09-09T20:10:06.946Z,25.60
2018-09-09T20:12:41.321Z,25.90
2018-09-09T20:15:14.845Z,26.40
2018-09-09T20:17:48.118Z,27.00
2018-09-09T20:20:27.794Z,27.20
2018-09-09T20:23:01.377Z,27.30
2018-09-09T20:25:34.681Z,27.60
2018-09-09T20:28:08.176Z,27.70
2018-09-09T20:30:41.677Z,27.60
2018-09-09T20:33:14.886Z,27.60
2018-09-09T20:35:48.354Z,27.60
2018-09-09T20:38:21.922Z,27.50
2018-09-09T20:40:55.068Z,27.40
2018-09-09T20:43:29.450Z,27.30
2018-09-09T20:46:02.534Z,27.10
2018-09-09T20:48:36.025Z,26.90
2018-09-09T20:51:09.399Z,26.80
2018-09-09T20:53:42.733Z,26.70
2018-09-09T20:56:15.755Z,26.50
2018-09-09T20:58:49.097Z,26.40
2018-09-09T21:01:23.411Z,26.30
2018-09-09T21:03:56.654Z,26.20
2018-09-09T21:06:30.199Z,26.10
2018-09-09T21:09:03.336Z,26.00
2018-09-09T21:11:36.685Z,25.90
2018-09-09T21:14:10.339Z,25.80
2018-09-09T21:27:55.253Z,25.60
2018-09-09T21:30:30.037Z,25.00
2018-09-09T21:33:03.378Z,24.90
2018-09-09T21:35:36.663Z,24.80
2018-09-09T21:38:09.787Z,24.80
2018-09-09T21:40:42.991Z,24.70
2018-09-09T21:43:16.173Z,24.60
2018-09-09T21:45:49.221Z,24.60
2018-09-09T21:48:22.353Z,24.50
2018-09-09T21:50:55.902Z,24.30
2018-09-09T21:53:29.473Z,24.30
2018-09-09T21:56:02.833Z,24.20
2018-09-09T21:58:36.254Z,24.10
2018-09-09T22:01:14.255Z,24.00
2018-09-09T22:03:47.688Z,23.90
2018-09-09T22:06:20.867Z,23.70
2018-09-09T22:08:54.295Z,23.60
2018-09-09T22:11:27.340Z,23.60
2018-09-09T22:14:00.408Z,23.50
2018-09-09T22:16:33.799Z,23.30
2018-09-09T22:19:07.974Z,23.30
2018-09-09T22:21:41.434Z,23.10
2018-09-09T22:24:14.580Z,22.90
2018-09-09T22:26:48.478Z,22.70
2018-09-09T22:29:21.665Z,22.40
2018-09-09T22:31:54.822Z,22.30
2018-09-09T22:34:28.180Z,22.20
2018-09-09T22:37:00.958Z,22.20
2018-09-09T22:39:33.929Z,22.20
2018-09-09T22:42:08.451Z,22.10
2018-09-09T22:44:42.141Z,22.10
2018-09-09T22:47:15.226Z,22.10
2018-09-09T22:49:48.280Z,22.10
2018-09-09T22:52:21.766Z,22.00
2018-09-09T22:54:54.797Z,21.90
2018-09-09T22:57:27.703Z,21.80
2018-09-09T23:00:00.657Z,21.70
2018-09-09T23:02:33.590Z,21.60
2018-09-09T23:05:06.634Z,21.50
2018-09-09T23:07:39.565Z,21.40
2018-09-09T23:10:13.101Z,21.30
2018-09-09T23:12:45.846Z,21.20
2018-09-09T23:15:23.346Z,21.10
2018-09-09T23:17:56.252Z,21.00
2018-09-09T23:20:29.141Z,21.10
2018-09-09T23:23:02.026Z,21.00
2018-09-09T23:25:35.146Z,20.90
2018-09-09T23:28:08.457Z,20.80
2018-09-09T23:30:41.349Z,20.70
2018-09-09T23:33:15.876Z,20.60
2018-09-09T23:35:48.849Z,20.70
2018-09-09T23:38:22.000Z,20.70
2018-09-09T23:40:55.893Z,20.60
2018-09-09T23:43:29.365Z,20.50
2018-09-09T23:46:02.376Z,20.50
2018-09-09T23:48:35.264Z,20.40
2018-09-09T23:51:08.553Z,20.40
2018-09-09T23:53:41.530Z,20.30
2018-09-09T23:56:14.929Z,20.30
2018-09-09T23:58:48.046Z,20.20
